sensor_id;sensor_type;location;lat;lon;timestamp;pressure;altitude;pressure_sealevel;temperature;humidity
3917;BME280;1973;50.518;7.318;2023-03-25T00:01:04;99902.94;;;11.07;100.00
3917;BME280;1973;50.518;7.318;2023-03-25T00:03:35;99905.06;;;11.05;100.00
3917;BME280;1973;50.518;7.318;2023-03-25T00:06:08;99907.81;;;11.05;100.00
3917;BME280;1973;50.518;7.318;2023-03-25T00:08:36;99916.09;;;11.05;100.00
3917;BME280;1973;50.518;7.318;2023-03-25T00:11:03;99910.00;;;11.03;100.00
3917;BME280;1973;50.518;7.318;2023-03-25T00:13:30;99916.09;;;11.05;100.00
3917;BME280;1973;50.518;7.318;2023-03-25T00:16:00;99921.59;;;11.05;100.00
3917;BME280;1973;50.518;7.318;2023-03-25T00:18:29;99906.75;;;11.06;100.00
3917;BME280;1973;50.518;7.318;2023-03-25T00:21:03;99904.22;;;11.05;100.00
3917;BME280;1973;50.518;7.318;2023-03-25T00:23:30;99901.25;;;11.06;100.00
3917;BME280;1973;50.518;7.318;2023-03-25T00:25:57;99909.63;;;11.11;100.00
3917;BME280;1973;50.518;7.318;2023-03-25T00:28:28;99915.13;;;11.11;100.00
3917;BME280;1973;50.518;7.318;2023-03-25T00:31:00;99900.75;;;11.09;100.00
3917;BME280;1973;50.518;7.318;2023-03-25T00:33:28;99909.63;;;11.11;100.00
3917;BME280;1973;50.518;7.318;2023-03-25T00:35:55;99904.13;;;11.11;100.00
3917;BME280;1973;50.518;7.318;2023-03-25T00:38:26;99898.59;;;11.11;100.00
3917;BME280;1973;50.518;7.318;2023-03-25T00:41:08;99915.72;;;11.02;100.00
3917;BME280;1973;50.518;7.318;2023-03-25T00:43:34;99895.16;;;11.04;100.00
3917;BME280;1973;50.518;7.318;2023-03-25T00:46:00;99898.47;;;11.06;100.00
3917;BME280;1973;50.518;7.318;2023-03-25T00:48:27;99903.06;;;11.01;100.00
3917;BME280;1973;50.518;7.318;2023-03-25T00:50:54;99896.72;;;11.00;100.00
3917;BME280;1973;50.518;7.318;2023-03-25T00:53:20;99896.34;;;10.97;100.00
3917;BME280;1973;50.518;7.318;2023-03-25T00:55:46;99898.84;;;10.98;100.00
3917;BME280;1973;50.518;7.318;2023-03-25T00:58:13;99891.06;;;10.95;100.00
3917;BME280;1973;50.518;7.318;2023-03-25T01:00:40;99893.34;;;10.98;100.00
3917;BME280;1973;50.518;7.318;2023-03-25T01:03:06;99886.19;;;10.97;100.00
3917;BME280;1973;50.518;7.318;2023-03-25T01:05:35;99885.69;;;11.00;100.00
3917;BME280;1973;50.518;7.318;2023-03-25T01:08:01;99881.38;;;11.04;100.00
3917;BME280;1973;50.518;7.318;2023-03-25T01:10:28;99877.28;;;11.07;100.00
3917;BME280;1973;50.518;7.318;2023-03-25T01:12:54;99869.03;;;11.07;100.00
3917;BME280;1973;50.518;7.318;2023-03-25T01:15:21;99876.22;;;11.08;100.00
3917;BME280;1973;50.518;7.318;2023-03-25T01:17:48;99866.03;;;11.08;100.00
3917;BME280;1973;50.518;7.318;2023-03-25T01:20:14;99875.88;;;11.04;100.00
3917;BME280;1973;50.518;7.318;2023-03-25T01:22:41;99868.69;;;11.03;100.00
3917;BME280;1973;50.518;7.318;2023-03-25T01:25:07;99864.84;;;11.04;100.00
3917;BME280;1973;50.518;7.318;2023-03-25T01:27:34;99867.84;;;11.03;100.00
3917;BME280;1973;50.518;7.318;2023-03-25T01:30:01;99862.81;;;11.00;100.00
3917;BME280;1973;50.518;7.318;2023-03-25T01:32:28;99867.47;;;10.99;100.00
3917;BME280;1973;50.518;7.318;2023-03-25T01:34:54;99872.28;;;10.92;100.00
3917;BME280;1973;50.518;7.318;2023-03-25T01:37:21;99865.56;;;10.88;100.00
3917;BME280;1973;50.518;7.318;2023-03-25T01:39:50;99863.88;;;10.87;100.00
3917;BME280;1973;50.518;7.318;2023-03-25T01:42:17;99863.44;;;10.79;100.00
3917;BME280;1973;50.518;7.318;2023-03-25T01:47:10;99856.25;;;10.78;100.00
3917;BME280;1973;50.518;7.318;2023-03-25T01:49:39;99850.38;;;10.74;100.00
3917;BME280;1973;50.518;7.318;2023-03-25T01:52:17;99847.28;;;10.70;100.00
3917;BME280;1973;50.518;7.318;2023-03-25T01:54:46;99849.41;;;10.68;100.00
3917;BME280;1973;50.518;7.318;2023-03-25T01:57:19;99845.72;;;10.63;100.00
3917;BME280;1973;50.518;7.318;2023-03-25T01:59:47;99840.34;;;10.56;100.00
3917;BME280;1973;50.518;7.318;2023-03-25T02:02:15;99850.50;;;10.56;100.00
3917;BME280;1973;50.518;7.318;2023-03-25T02:05:09;99833.88;;;10.51;100.00
3917;BME280;1973;50.518;7.318;2023-03-25T02:07:40;99839.63;;;10.49;100.00
3917;BME280;1973;50.518;7.318;2023-03-25T02:10:10;99829.44;;;10.50;100.00
3917;BME280;1973;50.518;7.318;2023-03-25T02:12:36;99830.75;;;10.47;100.00
3917;BME280;1973;50.518;7.318;2023-03-25T02:15:06;99829.44;;;10.50;100.00
3917;BME280;1973;50.518;7.318;2023-03-25T02:18:01;99837.69;;;10.50;100.00
3917;BME280;1973;50.518;7.318;2023-03-25T02:20:51;99836.25;;;10.47;100.00
3917;BME280;1973;50.518;7.318;2023-03-25T02:32:38;99829.91;;;10.35;100.00
3917;BME280;1973;50.518;7.318;2023-03-25T02:37:55;99826.34;;;10.35;100.00
3917;BME280;1973;50.518;7.318;2023-03-25T02:40:27;99828.00;;;10.36;100.00
3917;BME280;1973;50.518;7.318;2023-03-25T02:43:00;99820.84;;;10.35;100.00
3917;BME280;1973;50.518;7.318;2023-03-25T02:45:32;99819.75;;;10.36;100.00
3917;BME280;1973;50.518;7.318;2023-03-25T02:48:04;99817.84;;;10.36;100.00
3917;BME280;1973;50.518;7.318;2023-03-25T02:50:40;99822.50;;;10.36;100.00
3917;BME280;1973;50.518;7.318;2023-03-25T02:53:12;99830.25;;;10.39;100.00
3917;BME280;1973;50.518;7.318;2023-03-25T02:55:41;99825.38;;;10.41;100.00
3917;BME280;1973;50.518;7.318;2023-03-25T02:58:12;99837.22;;;10.41;100.00
3917;BME280;1973;50.518;7.318;2023-03-25T03:00:42;99839.72;;;10.43;100.00
3917;BME280;1973;50.518;7.318;2023-03-25T03:03:08;99847.50;;;10.46;100.00
3917;BME280;1973;50.518;7.318;2023-03-25T03:05:43;99845.13;;;10.49;100.00
3917;BME280;1973;50.518;7.318;2023-03-25T03:10:54;99837.81;;;10.55;100.00
3917;BME280;1973;50.518;7.318;2023-03-25T03:13:37;99828.25;;;10.57;100.00
3917;BME280;1973;50.518;7.318;2023-03-25T03:16:07;99826.69;;;10.61;100.00
3917;BME280;1973;50.518;7.318;2023-03-25T03:18:49;99835.19;;;10.60;100.00
3917;BME280;1973;50.518;7.318;2023-03-25T03:21:21;99833.50;;;10.59;100.00
3917;BME280;1973;50.518;7.318;2023-03-25T03:24:03;99833.66;;;10.64;100.00
3917;BME280;1973;50.518;7.318;2023-03-25T03:26:37;99834.81;;;10.68;100.00
3917;BME280;1973;50.518;7.318;2023-03-25T03:29:38;99841.63;;;10.65;100.00
3917;BME280;1973;50.518;7.318;2023-03-25T03:32:10;99844.53;;;10.70;100.00
3917;BME280;1973;50.518;7.318;2023-03-25T03:34:48;99845.81;;;10.80;100.00
3917;BME280;1973;50.518;7.318;2023-03-25T03:37:20;99848.94;;;10.83;100.00
3917;BME280;1973;50.518;7.318;2023-03-25T03:39:49;99849.53;;;10.85;100.00
3917;BME280;1973;50.518;7.318;2023-03-25T03:42:26;99858.53;;;10.81;100.00
3917;BME280;1973;50.518;7.318;2023-03-25T03:44:59;99849.53;;;10.85;100.00
3917;BME280;1973;50.518;7.318;2023-03-25T03:47:30;99863.19;;;10.80;100.00
3917;BME280;1973;50.518;7.318;2023-03-25T03:50:04;99858.88;;;10.84;100.00
3917;BME280;1973;50.518;7.318;2023-03-25T03:52:41;99859.84;;;10.78;100.00
3917;BME280;1973;50.518;7.318;2023-03-25T03:55:15;99860.34;;;10.75;100.00
3917;BME280;1973;50.518;7.318;2023-03-25T03:57:50;99878.41;;;10.71;100.00
3917;BME280;1973;50.518;7.318;2023-03-25T04:00:26;99893.56;;;10.62;100.00
3917;BME280;1973;50.518;7.318;2023-03-25T04:02:58;99874.44;;;10.67;100.00
3917;BME280;1973;50.518;7.318;2023-03-25T04:05:28;99886.16;;;10.62;100.00
3917;BME280;1973;50.518;7.318;2023-03-25T04:07:59;99881.50;;;10.63;100.00
3917;BME280;1973;50.518;7.318;2023-03-25T04:10:54;99889.53;;;10.53;100.00
3917;BME280;1973;50.518;7.318;2023-03-25T04:13:29;99872.66;;;10.49;100.00
3917;BME280;1973;50.518;7.318;2023-03-25T04:15:58;99878.00;;;10.44;100.00
3917;BME280;1973;50.518;7.318;2023-03-25T04:18:25;99874.19;;;10.45;100.00
3917;BME280;1973;50.518;7.318;2023-03-25T04:20:54;99883.16;;;10.41;100.00
3917;BME280;1973;50.518;7.318;2023-03-25T04:23:21;99877.03;;;10.39;100.00
3917;BME280;1973;50.518;7.318;2023-03-25T04:25:48;99882.44;;;10.34;100.00
3917;BME280;1973;50.518;7.318;2023-03-25T04:28:21;99885.19;;;10.34;100.00
3917;BME280;1973;50.518;7.318;2023-03-25T04:30:49;99881.81;;;10.32;100.00
3917;BME280;1973;50.518;7.318;2023-03-25T04:33:21;99882.28;;;10.29;100.00
3917;BME280;1973;50.518;7.318;2023-03-25T04:35:48;99880.59;;;10.27;100.00
3917;BME280;1973;50.518;7.318;2023-03-25T04:38:17;99887.91;;;10.22;100.00
3917;BME280;1973;50.518;7.318;2023-03-25T04:40:47;99895.78;;;10.18;100.00
3917;BME280;1973;50.518;7.318;2023-03-25T04:43:15;99904.03;;;10.18;100.00
3917;BME280;1973;50.518;7.318;2023-03-25T04:45:42;99879.03;;;10.20;100.00
3917;BME280;1973;50.518;7.318;2023-03-25T04:48:22;99897.59;;;10.24;100.00
3917;BME280;1973;50.518;7.318;2023-03-25T04:50:51;99898.53;;;10.18;100.00
3917;BME280;1973;50.518;7.318;2023-03-25T04:53:17;99900.66;;;10.16;100.00
3917;BME280;1973;50.518;7.318;2023-03-25T04:55:44;99889.66;;;10.16;100.00
3917;BME280;1973;50.518;7.318;2023-03-25T04:58:14;99888.47;;;10.12;100.00
3917;BME280;1973;50.518;7.318;2023-03-25T05:00:42;99906.03;;;10.11;100.00
3917;BME280;1973;50.518;7.318;2023-03-25T05:03:10;99895.59;;;10.13;100.00
3917;BME280;1973;50.518;7.318;2023-03-25T05:05:37;99902.06;;;10.07;100.00
3917;BME280;1973;50.518;7.318;2023-03-25T05:08:03;99913.53;;;10.04;100.00
3917;BME280;1973;50.518;7.318;2023-03-25T05:10:30;99909.69;;;10.05;100.00
3917;BME280;1973;50.518;7.318;2023-03-25T05:13:02;99905.97;;;10.00;100.00
3917;BME280;1973;50.518;7.318;2023-03-25T05:15:31;99905.75;;;10.01;100.00
3917;BME280;1973;50.518;7.318;2023-03-25T05:18:00;99903.00;;;10.01;100.00
3917;BME280;1973;50.518;7.318;2023-03-25T05:20:27;99911.25;;;10.01;100.00
3917;BME280;1973;50.518;7.318;2023-03-25T05:22:54;99901.31;;;10.00;100.00
3917;BME280;1973;50.518;7.318;2023-03-25T05:25:22;99907.19;;;10.04;100.00
3917;BME280;1973;50.518;7.318;2023-03-25T05:27:49;99904.19;;;10.05;100.00
3917;BME280;1973;50.518;7.318;2023-03-25T05:30:15;99908.88;;;10.05;100.00
3917;BME280;1973;50.518;7.318;2023-03-25T05:32:42;99901.69;;;10.04;100.00
3917;BME280;1973;50.518;7.318;2023-03-25T05:35:11;99900.38;;;10.06;100.00
3917;BME280;1973;50.518;7.318;2023-03-25T05:37:37;99903.59;;;10.03;100.00
3917;BME280;1973;50.518;7.318;2023-03-25T05:40:04;99896.78;;;10.06;100.00
3917;BME280;1973;50.518;7.318;2023-03-25T05:42:40;99894.28;;;10.04;100.00
3917;BME280;1973;50.518;7.318;2023-03-25T05:45:12;99904.44;;;10.04;100.00
3917;BME280;1973;50.518;7.318;2023-03-25T05:47:38;99915.19;;;10.05;100.00
3917;BME280;1973;50.518;7.318;2023-03-25T05:50:05;99924.06;;;10.07;100.00
3917;BME280;1973;50.518;7.318;2023-03-25T05:52:33;99921.91;;;10.09;100.00
3917;BME280;1973;50.518;7.318;2023-03-25T05:55:02;99914.03;;;10.13;100.00
3917;BME280;1973;50.518;7.318;2023-03-25T05:57:30;99921.47;;;10.12;100.00
3917;BME280;1973;50.518;7.318;2023-03-25T05:59:56;99916.94;;;10.18;100.00
3917;BME280;1973;50.518;7.318;2023-03-25T06:02:23;99912.19;;;10.25;100.00
3917;BME280;1973;50.518;7.318;2023-03-25T06:04:49;99911.00;;;10.33;100.00
3917;BME280;1973;50.518;7.318;2023-03-25T06:07:16;99912.69;;;10.34;100.00
3917;BME280;1973;50.518;7.318;2023-03-25T06:09:46;99916.75;;;10.43;100.00
3917;BME280;1973;50.518;7.318;2023-03-25T06:12:15;99904.09;;;10.42;100.00
3917;BME280;1973;50.518;7.318;2023-03-25T06:14:42;99892.25;;;10.41;100.00
3917;BME280;1973;50.518;7.318;2023-03-25T06:17:20;99919.28;;;10.44;100.00
3917;BME280;1973;50.518;7.318;2023-03-25T06:19:52;99907.91;;;10.41;100.00
3917;BME280;1973;50.518;7.318;2023-03-25T06:22:19;99904.91;;;10.42;100.00
3917;BME280;1973;50.518;7.318;2023-03-25T06:24:47;99909.81;;;10.40;100.00
3917;BME280;1973;50.518;7.318;2023-03-25T06:27:18;99921.06;;;10.39;100.00
3917;BME280;1973;50.518;7.318;2023-03-25T06:29:45;99928.25;;;10.40;100.00
3917;BME280;1973;50.518;7.318;2023-03-25T06:32:13;99919.88;;;10.35;100.00
3917;BME280;1973;50.518;7.318;2023-03-25T06:34:39;99921.53;;;10.36;100.00
3917;BME280;1973;50.518;7.318;2023-03-25T06:37:08;99914.84;;;10.43;100.00
3917;BME280;1973;50.518;7.318;2023-03-25T06:39:35;99920.50;;;10.48;100.00
3917;BME280;1973;50.518;7.318;2023-03-25T06:42:05;99928.03;;;10.53;100.00
3917;BME280;1973;50.518;7.318;2023-03-25T06:44:32;99918.97;;;10.64;100.00
3917;BME280;1973;50.518;7.318;2023-03-25T06:46:59;99911.44;;;10.71;100.00
3917;BME280;1973;50.518;7.318;2023-03-25T06:49:27;99913.69;;;10.74;100.00
3917;BME280;1973;50.518;7.318;2023-03-25T06:51:54;99900.44;;;10.83;100.00
3917;BME280;1973;50.518;7.318;2023-03-25T06:54:20;99909.75;;;10.93;100.00
3917;BME280;1973;50.518;7.318;2023-03-25T06:56:48;99904.72;;;11.02;100.00
3917;BME280;1973;50.518;7.318;2023-03-25T06:59:14;99906.75;;;11.06;100.00
3917;BME280;1973;50.518;7.318;2023-03-25T07:01:41;99893.69;;;11.13;100.00
3917;BME280;1973;50.518;7.318;2023-03-25T07:04:08;99888.50;;;11.29;100.00
3917;BME280;1973;50.518;7.318;2023-03-25T07:06:34;99882.50;;;11.32;100.00
3917;BME280;1973;50.518;7.318;2023-03-25T07:09:01;99884.81;;;11.23;100.00
3917;BME280;1973;50.518;7.318;2023-03-25T07:11:28;99897.00;;;11.27;100.00
3917;BME280;1973;50.518;7.318;2023-03-25T07:13:56;99877.84;;;11.20;100.00
3917;BME280;1973;50.518;7.318;2023-03-25T07:16:23;99876.06;;;11.26;100.00
3917;BME280;1973;50.518;7.318;2023-03-25T07:18:49;99892.25;;;11.22;100.00
3917;BME280;1973;50.518;7.318;2023-03-25T07:21:17;99903.75;;;11.19;100.00
3917;BME280;1973;50.518;7.318;2023-03-25T07:23:44;99902.44;;;11.22;100.00
3917;BME280;1973;50.518;7.318;2023-03-25T07:26:11;99911.41;;;11.17;100.00
3917;BME280;1973;50.518;7.318;2023-03-25T07:28:39;99895.25;;;11.09;100.00
3917;BME280;1973;50.518;7.318;2023-03-25T07:31:07;99896.44;;;11.13;100.00
3917;BME280;1973;50.518;7.318;2023-03-25T07:33:34;99891.75;;;11.26;100.00
3917;BME280;1973;50.518;7.318;2023-03-25T07:36:03;99886.47;;;11.36;100.00
3917;BME280;1973;50.518;7.318;2023-03-25T07:38:29;99884.53;;;11.36;100.00
3917;BME280;1973;50.518;7.318;2023-03-25T07:40:56;99886.38;;;11.31;100.00
3917;BME280;1973;50.518;7.318;2023-03-25T07:43:22;99903.97;;;11.30;100.00
3917;BME280;1973;50.518;7.318;2023-03-25T07:45:49;99913.44;;;11.10;100.00
3917;BME280;1973;50.518;7.318;2023-03-25T07:48:16;99915.63;;;10.97;100.00
3917;BME280;1973;50.518;7.318;2023-03-25T07:50:43;99916.34;;;10.92;100.00
3917;BME280;1973;50.518;7.318;2023-03-25T07:53:10;99917.06;;;10.99;100.00
3917;BME280;1973;50.518;7.318;2023-03-25T07:55:37;99908.66;;;10.94;100.00
3917;BME280;1973;50.518;7.318;2023-03-25T07:58:03;99900.03;;;11.02;100.00
3917;BME280;1973;50.518;7.318;2023-03-25T08:00:30;99906.75;;;11.06;100.00
3917;BME280;1973;50.518;7.318;2023-03-25T08:02:57;99906.75;;;11.18;100.00
3917;BME280;1973;50.518;7.318;2023-03-25T08:05:23;99932.00;;;11.27;100.00
3917;BME280;1973;50.518;7.318;2023-03-25T08:07:50;99951.41;;;11.20;100.00
3917;BME280;1973;50.518;7.318;2023-03-25T08:10:18;100014.78;;;11.08;100.00
3917;BME280;1973;50.518;7.318;2023-03-25T08:12:44;100018.06;;;10.64;100.00
3917;BME280;1973;50.518;7.318;2023-03-25T08:15:12;100000.03;;;10.50;100.00
3917;BME280;1973;50.518;7.318;2023-03-25T08:17:39;100018.41;;;10.26;100.00
3917;BME280;1973;50.518;7.318;2023-03-25T08:20:06;100001.84;;;10.14;100.00
3917;BME280;1973;50.518;7.318;2023-03-25T08:22:33;99980.06;;;9.95;100.00
3917;BME280;1973;50.518;7.318;2023-03-25T08:25:01;99974.34;;;9.96;100.00
3917;BME280;1973;50.518;7.318;2023-03-25T08:27:27;99973.50;;;9.96;100.00
3917;BME280;1973;50.518;7.318;2023-03-25T08:29:54;99953.88;;;9.92;100.00
3917;BME280;1973;50.518;7.318;2023-03-25T08:32:26;99984.75;;;9.76;100.00
3917;BME280;1973;50.518;7.318;2023-03-25T08:34:53;99978.66;;;9.74;100.00
3917;BME280;1973;50.518;7.318;2023-03-25T08:37:20;99985.38;;;9.78;100.00
3917;BME280;1973;50.518;7.318;2023-03-25T08:39:47;99984.44;;;9.84;100.00
3917;BME280;1973;50.518;7.318;2023-03-25T08:42:16;99996.19;;;9.91;100.00
3917;BME280;1973;50.518;7.318;2023-03-25T08:44:42;100008.41;;;9.95;100.00
3917;BME280;1973;50.518;7.318;2023-03-25T08:47:09;100000.78;;;9.97;100.00
3917;BME280;1973;50.518;7.318;2023-03-25T08:49:35;100013.44;;;9.98;100.00
3917;BME280;1973;50.518;7.318;2023-03-25T08:52:02;99995.72;;;9.94;100.00
3917;BME280;1973;50.518;7.318;2023-03-25T08:54:29;100002.16;;;9.88;100.00
3917;BME280;1973;50.518;7.318;2023-03-25T08:56:56;100004.34;;;9.79;100.00
3917;BME280;1973;50.518;7.318;2023-03-25T08:59:22;100008.78;;;9.81;100.00
3917;BME280;1973;50.518;7.318;2023-03-25T09:01:49;100009.03;;;9.79;100.00
3917;BME280;1973;50.518;7.318;2023-03-25T09:04:16;100016.38;;;9.67;100.00
3917;BME280;1973;50.518;7.318;2023-03-25T09:06:42;100015.53;;;9.66;100.00
3917;BME280;1973;50.518;7.318;2023-03-25T09:09:28;100011.00;;;9.72;100.00
3917;BME280;1973;50.518;7.318;2023-03-25T09:11:55;100005.53;;;9.90;100.00
3917;BME280;1973;50.518;7.318;2023-03-25T09:14:22;100012.66;;;10.09;100.00
3917;BME280;1973;50.518;7.318;2023-03-25T09:16:48;100011.94;;;10.32;100.00
3917;BME280;1973;50.518;7.318;2023-03-25T09:19:15;100008.28;;;10.38;100.00
3917;BME280;1973;50.518;7.318;2023-03-25T09:21:41;99994.09;;;10.53;100.00
3917;BME280;1973;50.518;7.318;2023-03-25T09:24:08;99992.09;;;10.71;100.00
3917;BME280;1973;50.518;7.318;2023-03-25T09:26:35;100000.34;;;10.83;100.00
3917;BME280;1973;50.518;7.318;2023-03-25T09:29:02;99997.75;;;10.88;100.00
3917;BME280;1973;50.518;7.318;2023-03-25T09:31:28;100004.69;;;11.02;100.00
3917;BME280;1973;50.518;7.318;2023-03-25T09:33:55;100000.28;;;11.13;100.00
3917;BME280;1973;50.518;7.318;2023-03-25T09:36:22;100001.13;;;11.13;100.00
3917;BME280;1973;50.518;7.318;2023-03-25T09:38:48;99994.66;;;11.19;100.00
3917;BME280;1973;50.518;7.318;2023-03-25T09:41:58;99981.00;;;11.24;100.00
3917;BME280;1973;50.518;7.318;2023-03-25T09:44:30;99979.06;;;11.37;100.00
3917;BME280;1973;50.518;7.318;2023-03-25T09:47:00;99982.81;;;11.31;100.00
3917;BME280;1973;50.518;7.318;2023-03-25T09:49:37;99977.16;;;11.49;100.00
3917;BME280;1973;50.518;7.318;2023-03-25T09:52:09;99985.88;;;11.57;100.00
3917;BME280;1973;50.518;7.318;2023-03-25T09:54:51;99988.97;;;11.61;100.00
3917;BME280;1973;50.518;7.318;2023-03-25T09:57:23;99987.19;;;11.66;100.00
3917;BME280;1973;50.518;7.318;2023-03-25T09:59:53;99996.78;;;11.64;100.00
3917;BME280;1973;50.518;7.318;2023-03-25T10:03:34;100005.53;;;11.73;98.05
3917;BME280;1973;50.518;7.318;2023-03-25T10:05:44;99996.53;;;11.54;98.29
3917;BME280;1973;50.518;7.318;2023-03-25T10:18:51;99993.06;;;11.82;96.58
3917;BME280;1973;50.518;7.318;2023-03-25T10:21:25;99985.03;;;11.80;95.32
3917;BME280;1973;50.518;7.318;2023-03-25T10:24:17;99998.66;;;11.87;88.92
3917;BME280;1973;50.518;7.318;2023-03-25T10:26:53;99995.78;;;11.93;93.24
3917;BME280;1973;50.518;7.318;2023-03-25T10:29:26;100002.44;;;12.09;90.30
3917;BME280;1973;50.518;7.318;2023-03-25T10:31:59;100002.06;;;12.17;91.35
3917;BME280;1973;50.518;7.318;2023-03-25T10:34:36;100001.44;;;12.27;87.57
3917;BME280;1973;50.518;7.318;2023-03-25T10:37:09;100024.13;;;12.17;78.97
3917;BME280;1973;50.518;7.318;2023-03-25T10:39:41;100008.47;;;12.34;80.68
3917;BME280;1973;50.518;7.318;2023-03-25T10:42:19;100002.19;;;12.39;75.84
3917;BME280;1973;50.518;7.318;2023-03-25T10:44:49;100006.00;;;12.49;78.18
3917;BME280;1973;50.518;7.318;2023-03-25T10:47:23;99994.16;;;12.65;73.88
3917;BME280;1973;50.518;7.318;2023-03-25T10:49:53;100009.81;;;12.77;75.26
3917;BME280;1973;50.518;7.318;2023-03-25T10:52:20;99992.81;;;13.01;74.68
3917;BME280;1973;50.518;7.318;2023-03-25T10:54:51;100014.25;;;12.94;69.10
3917;BME280;1973;50.518;7.318;2023-03-25T10:57:25;100016.63;;;13.02;65.83
3917;BME280;1973;50.518;7.318;2023-03-25T10:59:59;99997.72;;;13.11;66.10
3917;BME280;1973;50.518;7.318;2023-03-25T11:02:28;99984.38;;;13.25;66.72
3917;BME280;1973;50.518;7.318;2023-03-25T11:05:00;99997.72;;;13.11;64.22
3917;BME280;1973;50.518;7.318;2023-03-25T11:07:38;99995.97;;;13.22;65.50
3917;BME280;1973;50.518;7.318;2023-03-25T11:10:09;99999.91;;;13.64;63.96
3917;BME280;1973;50.518;7.318;2023-03-25T11:12:36;99991.34;;;13.65;62.98
3917;BME280;1973;50.518;7.318;2023-03-25T11:15:12;100022.47;;;13.56;58.94
3917;BME280;1973;50.518;7.318;2023-03-25T11:17:41;100027.44;;;13.37;61.76
3917;BME280;1973;50.518;7.318;2023-03-25T11:20:18;100006.09;;;13.16;62.13
3917;BME280;1973;50.518;7.318;2023-03-25T11:22:49;100014.59;;;12.98;64.88
3917;BME280;1973;50.518;7.318;2023-03-25T11:25:24;99986.16;;;13.14;63.74
3917;BME280;1973;50.518;7.318;2023-03-25T11:27:55;99972.06;;;13.32;63.85
3917;BME280;1973;50.518;7.318;2023-03-25T11:30:24;99962.91;;;13.48;64.50
3917;BME280;1973;50.518;7.318;2023-03-25T11:33:01;99968.25;;;13.55;63.25
3917;BME280;1973;50.518;7.318;2023-03-25T11:35:31;99978.28;;;13.61;64.10
3917;BME280;1973;50.518;7.318;2023-03-25T11:38:01;99981.47;;;13.91;63.98
3917;BME280;1973;50.518;7.318;2023-03-25T11:43:21;99987.06;;;14.98;58.57
3917;BME280;1973;50.518;7.318;2023-03-25T11:45:49;99961.44;;;15.23;58.70
3917;BME280;1973;50.518;7.318;2023-03-25T11:48:20;99967.00;;;15.23;57.15
3917;BME280;1973;50.518;7.318;2023-03-25T11:50:49;99980.31;;;15.26;56.38
3917;BME280;1973;50.518;7.318;2023-03-25T11:53:20;100001.63;;;14.57;57.00
3917;BME280;1973;50.518;7.318;2023-03-25T11:55:53;100024.31;;;14.54;57.61
3917;BME280;1973;50.518;7.318;2023-03-25T11:58:24;100000.84;;;14.88;58.41
3917;BME280;1973;50.518;7.318;2023-03-25T12:01:02;100012.03;;;14.72;61.78
3917;BME280;1973;50.518;7.318;2023-03-25T12:03:33;100005.00;;;14.64;62.76
3917;BME280;1973;50.518;7.318;2023-03-25T12:08:56;99981.31;;;14.78;62.89
3917;BME280;1973;50.518;7.318;2023-03-25T12:11:27;99975.84;;;14.83;62.41
3917;BME280;1973;50.518;7.318;2023-03-25T12:19:54;99959.88;;;14.95;63.85
3917;BME280;1973;50.518;7.318;2023-03-25T12:22:44;99941.50;;;14.89;60.05
3917;BME280;1973;50.518;7.318;2023-03-25T12:38:04;99988.91;;;14.34;72.40
3917;BME280;1973;50.518;7.318;2023-03-25T12:40:41;99999.06;;;14.29;70.44
3917;BME280;1973;50.518;7.318;2023-03-25T12:44:04;99989.91;;;14.50;68.50
3917;BME280;1973;50.518;7.318;2023-03-25T12:46:21;99963.69;;;14.89;67.83
3917;BME280;1973;50.518;7.318;2023-03-25T12:49:06;99956.59;;;15.40;66.50
3917;BME280;1973;50.518;7.318;2023-03-25T12:54:50;99933.97;;;16.26;60.98
3917;BME280;1973;50.518;7.318;2023-03-25T13:00:24;99927.25;;;16.17;58.65
3917;BME280;1973;50.518;7.318;2023-03-25T13:09:01;99934.00;;;16.51;54.31
3917;BME280;1973;50.518;7.318;2023-03-25T13:11:37;99917.09;;;17.03;48.94
3917;BME280;1973;50.518;7.318;2023-03-25T13:14:13;99931.81;;;16.83;48.91
3917;BME280;1973;50.518;7.318;2023-03-25T13:16:42;99918.41;;;17.26;48.45
3917;BME280;1973;50.518;7.318;2023-03-25T13:19:19;99919.78;;;17.33;43.87
3917;BME280;1973;50.518;7.318;2023-03-25T13:22:02;99903.31;;;17.72;43.98
3917;BME280;1973;50.518;7.318;2023-03-25T13:24:43;99915.41;;;18.07;43.92
3917;BME280;1973;50.518;7.318;2023-03-25T13:27:12;99918.28;;;17.86;44.36
3917;BME280;1973;50.518;7.318;2023-03-25T13:29:48;99891.59;;;17.75;44.20
3917;BME280;1973;50.518;7.318;2023-03-25T13:32:21;99902.47;;;17.67;44.46
3917;BME280;1973;50.518;7.318;2023-03-25T13:34:57;99903.16;;;17.13;43.71
3917;BME280;1973;50.518;7.318;2023-03-25T13:37:33;99902.19;;;17.68;42.08
3917;BME280;1973;50.518;7.318;2023-03-25T13:43:04;99900.72;;;18.35;41.18
3917;BME280;1973;50.518;7.318;2023-03-25T13:45:43;99934.75;;;17.73;41.79
3917;BME280;1973;50.518;7.318;2023-03-25T13:48:18;99908.34;;;17.65;42.38
3917;BME280;1973;50.518;7.318;2023-03-25T13:50:48;99898.63;;;17.58;43.38
3917;BME280;1973;50.518;7.318;2023-03-25T13:53:46;99896.19;;;17.16;42.08
3917;BME280;1973;50.518;7.318;2023-03-25T13:59:30;99870.63;;;17.14;42.00
3917;BME280;1973;50.518;7.318;2023-03-25T14:05:02;99908.75;;;16.83;41.55
3917;BME280;1973;50.518;7.318;2023-03-25T14:07:45;99904.47;;;16.20;41.15
3917;BME280;1973;50.518;7.318;2023-03-25T14:10:25;99909.72;;;16.06;41.36
3917;BME280;1973;50.518;7.318;2023-03-25T14:12:58;99948.59;;;16.06;40.80
3917;BME280;1973;50.518;7.318;2023-03-25T14:15:30;99882.00;;;16.26;40.94
3917;BME280;1973;50.518;7.318;2023-03-25T14:17:59;99890.09;;;16.48;40.93
3917;BME280;1973;50.518;7.318;2023-03-25T14:20:32;99921.22;;;16.50;40.63
3917;BME280;1973;50.518;7.318;2023-03-25T14:23:05;99916.72;;;16.29;41.09
3917;BME280;1973;50.518;7.318;2023-03-25T14:25:41;99931.38;;;15.99;42.83
3917;BME280;1973;50.518;7.318;2023-03-25T14:28:15;99922.66;;;15.70;44.74
3917;BME280;1973;50.518;7.318;2023-03-25T14:30:43;99952.94;;;15.77;44.62
3917;BME280;1973;50.518;7.318;2023-03-25T14:33:11;99941.56;;;15.83;44.70
3917;BME280;1973;50.518;7.318;2023-03-25T14:43:37;99920.22;;;15.84;44.57
3917;BME280;1973;50.518;7.318;2023-03-25T14:54:00;99878.16;;;16.88;42.29
3917;BME280;1973;50.518;7.318;2023-03-25T14:56:33;99872.88;;;16.86;42.09
3917;BME280;1973;50.518;7.318;2023-03-25T14:59:09;99878.16;;;16.78;42.48
3917;BME280;1973;50.518;7.318;2023-03-25T15:01:40;99865.66;;;16.65;42.91